createdAt,value
2023-03-26T00:01:50.178Z,13.59
2023-03-26T00:04:59.672Z,12.74
2023-03-26T00:08:05.880Z,12.36
2023-03-26T00:11:17.554Z,10.70
2023-03-26T00:14:30.740Z,7.79
2023-03-26T00:17:37.584Z,10.58
2023-03-26T00:20:46.249Z,11.43
2023-03-26T00:23:53.925Z,8.97
2023-03-26T00:26:59.994Z,9.93
2023-03-26T00:30:08.281Z,13.01
2023-03-26T00:33:17.740Z,11.25
2023-03-26T00:36:29.119Z,10.77
2023-03-26T00:39:41.945Z,8.30
2023-03-26T00:42:48.756Z,6.76
2023-03-26T00:45:58.463Z,7.23
2023-03-26T00:49:05.883Z,7.74
2023-03-26T00:52:14.565Z,8.15
2023-03-26T00:55:21.534Z,8.83
2023-03-26T00:58:27.524Z,8.90
2023-03-26T01:01:36.324Z,9.05
2023-03-26T01:04:43.029Z,8.25
2023-03-26T01:07:52.576Z,8.36
2023-03-26T01:11:07.611Z,11.38
2023-03-26T01:14:21.885Z,14.59
2023-03-26T01:17:34.533Z,15.43
2023-03-26T01:20:54.208Z,13.90
2023-03-26T01:24:09.831Z,15.94
2023-03-26T01:27:35.250Z,15.74
2023-03-26T01:30:55.164Z,15.89
2023-03-26T01:34:17.165Z,13.47
2023-03-26T01:37:44.194Z,10.94
2023-03-26T01:41:12.298Z,11.41
2023-03-26T01:44:35.501Z,13.07
2023-03-26T01:47:46.785Z,12.17
2023-03-26T01:50:56.599Z,11.60
2023-03-26T01:54:07.004Z,9.93
2023-03-26T01:57:37.000Z,10.06
2023-03-26T02:00:57.171Z,10.92
2023-03-26T02:04:19.856Z,9.83
2023-03-26T02:07:38.239Z,8.94
2023-03-26T02:10:49.106Z,7.52
2023-03-26T02:13:59.440Z,7.60
2023-03-26T02:17:06.417Z,9.36
2023-03-26T02:20:19.201Z,10.33
2023-03-26T02:23:30.160Z,11.12
2023-03-26T02:26:47.214Z,12.73
2023-03-26T02:30:05.267Z,12.32
2023-03-26T02:33:15.707Z,12.00
2023-03-26T02:36:27.837Z,11.19
2023-03-26T02:39:38.858Z,8.99
2023-03-26T02:42:53.445Z,7.47
2023-03-26T02:46:03.281Z,6.52
2023-03-26T02:49:32.475Z,7.38
2023-03-26T02:52:41.650Z,9.30
2023-03-26T02:55:47.813Z,12.64
2023-03-26T02:58:54.807Z,13.87
2023-03-26T03:02:03.797Z,13.85
2023-03-26T03:05:14.319Z,8.61
2023-03-26T03:08:21.355Z,4.86
2023-03-26T03:11:46.808Z,4.95
2023-03-26T03:14:53.072Z,4.89
2023-03-26T03:18:02.844Z,6.34
2023-03-26T03:21:11.614Z,7.85
2023-03-26T03:24:18.862Z,8.40
2023-03-26T03:27:28.142Z,7.43
2023-03-26T03:30:43.534Z,7.67
2023-03-26T03:33:59.407Z,8.18
2023-03-26T03:37:08.475Z,8.02
2023-03-26T03:40:23.356Z,7.60
2023-03-26T03:43:30.499Z,7.44
2023-03-26T03:46:54.590Z,7.49
2023-03-26T03:50:04.883Z,8.04
2023-03-26T03:53:16.191Z,8.00
2023-03-26T03:56:27.237Z,7.26
2023-03-26T03:59:58.468Z,5.70
2023-03-26T04:03:09.930Z,5.60
2023-03-26T04:06:20.514Z,5.40
2023-03-26T04:09:31.781Z,6.11
2023-03-26T04:12:42.875Z,6.50
2023-03-26T04:15:54.826Z,7.50
2023-03-26T04:19:02.932Z,9.08
2023-03-26T04:22:12.839Z,9.36
2023-03-26T04:25:33.577Z,11.20
2023-03-26T04:28:54.907Z,11.16
2023-03-26T04:32:09.405Z,12.78
2023-03-26T04:35:20.170Z,16.23
2023-03-26T04:38:44.889Z,21.19
2023-03-26T04:41:53.687Z,22.42
2023-03-26T04:45:03.455Z,20.58
2023-03-26T04:48:14.696Z,20.11
2023-03-26T04:51:27.367Z,19.25
2023-03-26T04:54:39.336Z,18.85
2023-03-26T04:58:03.705Z,17.88
2023-03-26T05:01:32.440Z,15.56
2023-03-26T05:04:39.522Z,11.99
2023-03-26T05:07:49.258Z,8.40
2023-03-26T05:11:00.705Z,6.52
2023-03-26T05:14:13.532Z,6.76
2023-03-26T05:17:24.019Z,6.76
2023-03-26T05:20:36.317Z,7.85
2023-03-26T05:23:45.025Z,8.16
2023-03-26T05:27:01.968Z,8.31
2023-03-26T05:30:10.919Z,7.98
2023-03-26T05:33:24.398Z,6.74
2023-03-26T05:36:40.066Z,6.62
2023-03-26T05:40:11.887Z,5.71
2023-03-26T05:43:28.643Z,5.17
2023-03-26T05:46:47.581Z,6.00
2023-03-26T05:50:00.410Z,5.22
2023-03-26T05:53:16.565Z,5.03
2023-03-26T05:56:44.620Z,4.56
2023-03-26T06:00:15.630Z,4.88
2023-03-26T06:03:24.990Z,4.81
2023-03-26T06:06:55.078Z,4.60
2023-03-26T06:10:01.191Z,4.38
2023-03-26T06:13:09.329Z,4.92
2023-03-26T06:16:27.133Z,9.27
2023-03-26T06:19:54.731Z,8.01
2023-03-26T06:23:13.166Z,5.53
2023-03-26T06:26:40.465Z,6.59
2023-03-26T06:30:02.204Z,7.31
2023-03-26T06:33:26.395Z,6.62
2023-03-26T06:36:32.606Z,8.32
2023-03-26T06:39:39.575Z,7.54
2023-03-26T06:43:10.928Z,8.33
2023-03-26T06:46:37.983Z,8.42
2023-03-26T06:50:05.128Z,8.02
2023-03-26T06:53:15.403Z,7.21
2023-03-26T06:56:41.694Z,6.98
2023-03-26T07:00:14.539Z,5.07
2023-03-26T07:03:42.437Z,5.47
2023-03-26T07:07:11.009Z,5.35
2023-03-26T07:10:36.173Z,5.28
2023-03-26T07:14:08.575Z,6.20
2023-03-26T07:17:31.643Z,6.97
2023-03-26T07:20:53.750Z,9.05
2023-03-26T07:24:11.320Z,14.25
2023-03-26T07:28:01.348Z,17.93
2023-03-26T07:31:42.550Z,26.03
2023-03-26T07:35:37.022Z,16.18
2023-03-26T07:39:31.265Z,16.24
2023-03-26T07:43:11.111Z,11.74
2023-03-26T07:46:57.887Z,8.72
2023-03-26T07:50:32.880Z,7.57
2023-03-26T07:53:52.527Z,7.77
2023-03-26T07:57:55.233Z,11.72
2023-03-26T08:01:31.290Z,14.60
2023-03-26T08:05:20.031Z,14.79
2023-03-26T08:08:50.993Z,10.05
2023-03-26T08:12:31.115Z,7.20
2023-03-26T08:15:59.454Z,8.88
2023-03-26T08:19:29.384Z,14.96
2023-03-26T08:22:43.663Z,15.04
2023-03-26T08:26:07.159Z,9.93
2023-03-26T08:29:27.001Z,13.27
2023-03-26T08:32:39.206Z,13.18
2023-03-26T08:35:55.152Z,12.54
2023-03-26T08:39:02.085Z,13.44
2023-03-26T08:43:08.493Z,9.07
2023-03-26T08:47:14.925Z,6.28
2023-03-26T08:51:14.319Z,7.35
2023-03-26T08:55:20.355Z,6.45
2023-03-26T08:59:17.447Z,6.53
2023-03-26T09:02:59.106Z,7.16
2023-03-26T09:06:56.619Z,8.33
2023-03-26T09:10:48.665Z,4.67
2023-03-26T09:14:48.232Z,4.45
2023-03-26T09:19:07.030Z,8.43
2023-03-26T09:23:15.378Z,5.59
2023-03-26T09:26:29.683Z,6.05
2023-03-26T09:30:48.638Z,9.80
2023-03-26T09:34:15.913Z,5.85
2023-03-26T09:37:36.993Z,4.27
2023-03-26T09:41:21.474Z,4.05
2023-03-26T09:45:15.765Z,4.14
2023-03-26T09:49:18.508Z,3.76
2023-03-26T09:52:59.351Z,4.73
2023-03-26T09:56:38.382Z,4.36
2023-03-26T10:00:28.750Z,3.50
2023-03-26T10:04:09.376Z,3.73
2023-03-26T10:07:45.185Z,4.06
2023-03-26T10:11:03.314Z,3.91
2023-03-26T10:14:27.151Z,3.50
2023-03-26T10:18:26.782Z,4.26
2023-03-26T10:21:50.654Z,3.92
2023-03-26T10:25:41.848Z,4.04
2023-03-26T10:29:24.013Z,4.72
2023-03-26T10:33:04.968Z,5.26
2023-03-26T10:36:35.759Z,4.62
2023-03-26T10:40:10.817Z,3.72
2023-03-26T10:44:05.623Z,3.02
2023-03-26T10:47:54.139Z,3.55
2023-03-26T10:51:36.696Z,3.37
2023-03-26T10:54:59.426Z,3.48
2023-03-26T10:58:26.700Z,3.33
2023-03-26T11:01:53.331Z,2.55
2023-03-26T11:05:38.119Z,2.61
2023-03-26T11:09:08.277Z,2.47
2023-03-26T11:12:29.399Z,2.29
2023-03-26T11:15:50.315Z,2.52
2023-03-26T11:19:06.456Z,2.63
2023-03-26T11:22:33.864Z,2.48
2023-03-26T11:26:06.385Z,2.61
2023-03-26T11:29:46.110Z,2.48
2023-03-26T11:33:00.092Z,3.73
2023-03-26T11:36:15.394Z,3.05
2023-03-26T11:39:44.411Z,3.55
2023-03-26T11:43:00.432Z,3.52
2023-03-26T11:46:15.724Z,3.05
2023-03-26T11:49:26.704Z,2.76
2023-03-26T11:52:32.820Z,4.27
2023-03-26T11:55:52.847Z,3.07
2023-03-26T11:59:21.809Z,2.54
2023-03-26T12:02:52.214Z,2.66
2023-03-26T12:06:04.117Z,3.54
2023-03-26T12:09:25.002Z,4.72
2023-03-26T12:12:42.696Z,3.49
2023-03-26T12:15:49.818Z,3.29
2023-03-26T12:19:11.850Z,3.08
2023-03-26T12:22:36.568Z,2.59
2023-03-26T12:25:43.999Z,6.42
2023-03-26T12:28:54.725Z,8.03
2023-03-26T12:32:09.798Z,5.15
2023-03-26T12:35:22.458Z,5.86
2023-03-26T12:39:16.647Z,5.97
2023-03-26T12:44:46.650Z,5.30
2023-03-26T12:47:26.413Z,6.88
2023-03-26T12:49:31.637Z,7.05
2023-03-26T12:53:19.475Z,7.20
2023-03-26T12:56:40.731Z,8.65
2023-03-26T13:00:09.564Z,7.93
2023-03-26T13:03:43.541Z,7.40
2023-03-26T13:07:19.674Z,4.62
2023-03-26T13:10:51.721Z,9.79
2023-03-26T13:14:28.668Z,10.84
2023-03-26T13:17:49.234Z,7.74
2023-03-26T13:21:17.471Z,4.93
2023-03-26T13:24:47.443Z,4.95
2023-03-26T13:28:27.478Z,4.90
2023-03-26T13:32:11.878Z,5.30
2023-03-26T13:35:37.543Z,3.74
2023-03-26T13:39:15.411Z,4.09
2023-03-26T13:42:41.665Z,4.54
2023-03-26T13:46:06.199Z,3.39
2023-03-26T13:49:18.745Z,5.68
2023-03-26T13:52:35.491Z,6.50
2023-03-26T13:55:53.598Z,5.30
2023-03-26T13:59:08.870Z,5.14
2023-03-26T14:02:27.602Z,5.42
2023-03-26T14:05:42.503Z,4.13
2023-03-26T14:08:59.982Z,5.38
2023-03-26T14:12:39.414Z,4.45
2023-03-26T14:15:56.270Z,4.96
2023-03-26T14:19:36.606Z,4.31
2023-03-26T14:23:05.333Z,13.88
2023-03-26T14:26:42.647Z,19.01
2023-03-26T14:30:28.951Z,31.80
2023-03-26T14:34:08.029Z,7.05
2023-03-26T14:37:57.739Z,11.17
2023-03-26T14:41:27.398Z,18.78
2023-03-26T14:45:26.249Z,13.23
2023-03-26T14:49:32.344Z,7.43
2023-03-26T14:52:52.013Z,10.88
2023-03-26T14:56:42.001Z,14.65
2023-03-26T15:01:04.226Z,11.08
2023-03-26T15:04:52.728Z,13.12
2023-03-26T15:09:07.167Z,6.15
2023-03-26T15:12:43.417Z,11.38
2023-03-26T15:16:45.364Z,9.97
2023-03-26T15:20:48.323Z,10.09
2023-03-26T15:24:40.874Z,24.82
2023-03-26T15:28:29.728Z,24.00
2023-03-26T15:32:33.716Z,14.76
2023-03-26T15:36:37.434Z,14.66
2023-03-26T15:40:32.849Z,17.88
2023-03-26T15:44:25.630Z,26.44
2023-03-26T15:48:02.554Z,11.99
2023-03-26T15:51:49.691Z,19.62
2023-03-26T15:55:17.071Z,34.39
2023-03-26T15:58:41.067Z,8.29
2023-03-26T16:02:07.995Z,9.28
2023-03-26T16:05:43.566Z,8.20
2023-03-26T16:09:10.459Z,15.23
2023-03-26T16:12:38.847Z,11.28
2023-03-26T16:15:46.825Z,11.02
2023-03-26T16:19:52.223Z,14.57
2023-03-26T16:23:04.746Z,15.63
2023-03-26T16:26:28.890Z,13.39
2023-03-26T16:30:13.306Z,18.22
2023-03-26T16:33:35.845Z,15.15
2023-03-26T16:36:50.257Z,19.48
2023-03-26T16:39:59.603Z,21.12
2023-03-26T16:43:48.940Z,14.32
2023-03-26T16:47:35.251Z,17.97
2023-03-26T16:50:58.076Z,18.77
2023-03-26T16:54:25.310Z,15.62
2023-03-26T16:57:41.479Z,11.94
2023-03-26T17:01:00.416Z,11.36
2023-03-26T17:04:20.935Z,11.81
2023-03-26T17:07:40.358Z,18.60
2023-03-26T17:11:03.507Z,14.84
2023-03-26T17:14:31.437Z,18.43
2023-03-26T17:18:15.654Z,16.70
2023-03-26T17:21:46.869Z,14.66
2023-03-26T17:25:08.141Z,12.92
2023-03-26T17:29:00.367Z,14.51
2023-03-26T17:32:15.285Z,15.49
2023-03-26T17:35:43.082Z,15.49
2023-03-26T17:39:07.694Z,13.91
2023-03-26T17:42:28.108Z,13.60
2023-03-26T17:45:40.675Z,17.88
2023-03-26T17:49:03.083Z,20.92
2023-03-26T17:52:25.677Z,18.64
2023-03-26T17:55:41.865Z,14.98
2023-03-26T17:59:11.227Z,12.14
2023-03-26T18:02:42.455Z,18.39
2023-03-26T18:06:12.291Z,14.29
2023-03-26T18:09:51.288Z,17.12
2023-03-26T18:13:41.607Z,23.78
2023-03-26T18:17:06.568Z,17.17
2023-03-26T18:20:36.818Z,23.02
2023-03-26T18:23:52.406Z,15.96
2023-03-26T18:27:04.862Z,15.82
2023-03-26T18:30:26.472Z,15.88
2023-03-26T18:33:46.545Z,13.08
2023-03-26T18:37:18.315Z,14.69
2023-03-26T18:40:35.897Z,16.78
2023-03-26T18:43:48.202Z,16.98
2023-03-26T18:46:58.527Z,17.43
2023-03-26T18:50:06.173Z,18.61
2023-03-26T18:53:22.224Z,18.01
2023-03-26T18:56:36.432Z,19.79
2023-03-26T18:59:47.371Z,17.86
2023-03-26T19:03:08.178Z,13.04
2023-03-26T19:06:21.240Z,14.23
2023-03-26T19:09:32.426Z,14.87
2023-03-26T19:12:41.687Z,11.29
2023-03-26T19:15:52.943Z,13.75
2023-03-26T19:19:14.353Z,11.87
2023-03-26T19:22:26.548Z,15.73
2023-03-26T19:25:41.807Z,17.34
2023-03-26T19:28:54.869Z,13.19
2023-03-26T19:32:07.933Z,12.13
2023-03-26T19:35:26.678Z,11.57
2023-03-26T19:38:45.768Z,12.81
2023-03-26T19:41:55.981Z,11.73
2023-03-26T19:45:18.616Z,11.27
2023-03-26T19:48:59.525Z,8.82
2023-03-26T19:52:18.458Z,8.13
2023-03-26T19:55:30.526Z,8.59
2023-03-26T19:58:36.635Z,9.85
2023-03-26T20:01:44.325Z,12.50
2023-03-26T20:04:51.001Z,11.82
2023-03-26T20:08:19.116Z,10.97
2023-03-26T20:11:33.610Z,12.15
2023-03-26T20:14:40.452Z,12.68
2023-03-26T20:17:50.349Z,13.92
2023-03-26T20:20:57.831Z,15.67
2023-03-26T20:24:16.654Z,17.78
2023-03-26T20:27:28.932Z,17.95
2023-03-26T20:30:37.879Z,14.74
2023-03-26T20:33:45.608Z,16.06
2023-03-26T20:36:55.575Z,15.68
2023-03-26T20:40:12.608Z,17.31
2023-03-26T20:43:22.057Z,18.60
2023-03-26T20:46:31.903Z,19.73
2023-03-26T20:49:38.042Z,20.08
2023-03-26T20:52:46.548Z,21.73
2023-03-26T20:55:55.196Z,26.86
2023-03-26T20:59:11.084Z,32.88
2023-03-26T21:02:18.609Z,30.70
2023-03-26T21:05:32.893Z,26.71
2023-03-26T21:08:40.076Z,27.94
2023-03-26T21:12:11.517Z,32.16
2023-03-26T21:15:23.437Z,31.72
2023-03-26T21:18:34.779Z,31.41
2023-03-26T21:22:00.201Z,25.99
2023-03-26T21:25:38.866Z,22.55
2023-03-26T21:28:54.870Z,20.92
2023-03-26T21:32:03.213Z,22.69
2023-03-26T21:35:11.767Z,21.52
2023-03-26T21:38:23.250Z,22.95
2023-03-26T21:41:41.543Z,20.76
2023-03-26T21:44:52.322Z,19.55
2023-03-26T21:48:17.660Z,22.89
2023-03-26T21:51:43.084Z,35.43
2023-03-26T21:54:50.064Z,18.41
2023-03-26T21:58:31.841Z,17.77
2023-03-26T22:01:54.910Z,14.52
2023-03-26T22:05:15.560Z,17.58
2023-03-26T22:08:32.844Z,16.84
2023-03-26T22:11:39.674Z,16.48
2023-03-26T22:14:46.081Z,15.49
2023-03-26T22:18:04.907Z,14.23
2023-03-26T22:21:11.341Z,13.27
2023-03-26T22:24:18.132Z,12.67
2023-03-26T22:27:24.154Z,11.78
2023-03-26T22:30:31.329Z,12.46
2023-03-26T22:33:41.037Z,13.51
2023-03-26T22:36:47.920Z,12.07
2023-03-26T22:39:53.789Z,11.60
2023-03-26T22:43:00.616Z,11.03
2023-03-26T22:46:11.082Z,11.07
2023-03-26T22:49:21.663Z,10.39
2023-03-26T22:52:27.822Z,11.90
2023-03-26T22:55:34.589Z,12.21
2023-03-26T22:58:41.108Z,12.88
2023-03-26T23:01:48.167Z,12.84
2023-03-26T23:04:56.890Z,11.58
2023-03-26T23:08:03.922Z,11.45
2023-03-26T23:11:16.453Z,11.64
2023-03-26T23:14:23.475Z,12.41
2023-03-26T23:17:29.461Z,13.11
2023-03-26T23:20:40.316Z,13.20
2023-03-26T23:23:46.462Z,12.48
2023-03-26T23:26:53.497Z,12.98
2023-03-26T23:29:59.616Z,14.10
2023-03-26T23:33:06.623Z,14.49
2023-03-26T23:36:18.900Z,14.55
2023-03-26T23:39:26.935Z,15.77
2023-03-26T23:42:34.757Z,15.72
2023-03-26T23:45:41.895Z,13.52
2023-03-26T23:48:52.354Z,14.60
2023-03-26T23:52:02.280Z,16.77
2023-03-26T23:55:09.742Z,17.22
2023-03-26T23:58:17.632Z,17.90
